Vancouver International Airport

CYVR · British Columbia, Canada

METAR history CYVR · Vancouver International Airport

Below you see METARs of the last few days. Select a year to browse through older METARs, from the year 2007 onwards.

December 7, 2022

Time Code Weather Temp. Visibility Ceiling Wind METAR/SPECI
09:00
M
4 °C 25 mi 2,400 ft 080° 080° 7 kt METAR CYVR 071700Z 08007KT 25SM BKN024 BKN040 04/04 A3014 RMK SC6SC1 SLP208
08:00
M
3 °C 25 mi 2,000 ft 080° 080° 7 kt METAR CYVR 071600Z 08007KT 25SM FEW018 BKN020 OVC040 03/03 A3014 RMK SC2SC5SC1 SLP209
07:00
M
3 °C 10 mi 1,400 ft 080° 080° 6 kt METAR CYVR 071500Z 08006KT 10SM FEW010 OVC014 03/03 A3014 RMK ST1SC7 SLP210
06:00
M
3 °C 10 mi 1,300 ft 080° 080° 6 kt METAR CYVR 071400Z 08006KT 10SM -RA FEW008 OVC013 03/03 A3014 RMK ST1SC7 SLP210
05:00
M
3 °C 8 mi 1,300 ft 060° 060° 7 kt METAR CYVR 071300Z 06007KT 8SM -RA FEW008 OVC013 03/03 A3015 RMK ST2SC6 SLP213
04:00
M
3 °C 10 mi 1,300 ft 080° 080° 6 kt METAR CYVR 071200Z 08006KT 10SM -RA FEW010 OVC013 03/03 A3016 RMK ST2SC6 SLP214
03:00
M
3 °C 10 mi 1,400 ft 080° 080° 6 kt METAR CYVR 071100Z 08006KT 10SM -RA BKN014 OVC021 03/03 A3017 RMK SC7SC1 SLP219
02:52
M
2 °C 10 mi 1,400 ft 080° 080° 5 kt METAR CYVR 071052Z 08005KT 10SM -RA OVC014 02/02 A3017 RMK SC8 SLP219
02:00
M
3 °C 12 mi 2,000 ft 070° 070° 6 kt METAR CYVR 071000Z 07006KT 12SM -RA OVC020 03/03 A3017 RMK SC8 SLP218
01:03
M
2 °C 12 mi 1,900 ft 080° 080° 4 kt METAR CYVR 070903Z 08004KT 12SM -RA OVC019 02/02 A3017 RMK SC8 SLP219
01:00
M
3 °C 12 mi 1,900 ft 070° 070° 5 kt METAR CYVR 070900Z 07005KT 12SM -RA OVC019 03/03 A3017 RMK SC8 SLP219
00:44
M
2 °C 15 mi 2,300 ft 080° 080° 4 kt METAR CYVR 070844Z 08004KT 15SM -RA OVC023 02/02 A3017 RMK SC8 SLP219
00:30
M
3 °C 15 mi 2,000 ft 080° 080° 4 kt METAR CYVR 070830Z 08004KT 15SM BKN020 OVC031 03/03 A3017 RMK SC7SC1 SLP219
00:00
M
3 °C 15 mi 1,900 ft 070° 070° 6 kt METAR CYVR 070800Z 07006KT 15SM -RA BKN019 OVC057 03/03 A3017 RMK SC7SC1 SLP219

December 6, 2022

Time Code Weather Temp. Visibility Ceiling Wind METAR/SPECI
23:55
M
3 °C 15 mi 2,100 ft 070° 070° 6 kt METAR CYVR 070755Z 07006KT 15SM -RA BKN021 OVC055 03/03 A3017 RMK SC6SC2 SLP219
23:00
M
3 °C 15 mi 2,300 ft 070° 070° 5 kt METAR CYVR 070700Z 07005KT 15SM BKN023 OVC031 03/03 A3017 RMK SC6SC2 SLP220
22:00
V
2 °C 15 mi 3,200 ft 090° 090° 3 kt METAR CYVR 070600Z 09003KT 15SM BKN032 OVC049 02/02 A3017 RMK SC6SC2 SLP219
21:00
V
2 °C 15 mi 3,100 ft 080° 080° 3 kt METAR CYVR 070500Z 08003KT 15SM BKN031 OVC051 02/02 A3017 RMK SC5SC3 SLP218
20:31
V
2 °C 15 mi 3,500 ft 090° 090° 4 kt METAR CYVR 070431Z 09004KT 15SM BKN035 OVC052 02/02 A3016 RMK SC5SC3 SLP216
20:00
V
3 °C 15 mi 3,600 ft 070° 070° 3 kt METAR CYVR 070400Z 07003KT 15SM BKN036 OVC052 03/02 A3016 RMK SC6SC2 SLP214
19:00
V
2 °C 15 mi 3,600 ft 080° 080° 3 kt METAR CYVR 070300Z 08003KT 15SM OVC036 02/02 A3015 RMK SC8 SLP212
18:00
V
2 °C 20 mi 3,700 ft 100° 100° 3 kt METAR CYVR 070200Z 10003KT 20SM FEW020 OVC037 02/02 A3014 RMK CU1SC8 CU TR SLP210
17:04
V
2 °C 20 mi 3,800 ft 100° 100° 3 kt SPECI CYVR 070104Z 10003KT 20SM FEW020 BKN038 OVC045 02/02 A3014 RMK CU1SC7SC1 CU TR SLP208
17:02
V
2 °C 20 mi 3,800 ft 100° 100° 3 kt METAR CYVR 070102Z 10003KT 20SM FEW020 BKN038 OVC045 02/02 A3014 RMK CU1SC7SC1 CU TR SLP207
17:00
V
3 °C 20 mi 3,800 ft 100° 100° 4 kt METAR CYVR 070100Z 10004KT 20SM FEW020 BKN038 OVC045 03/02 A3014 RMK CU1SC7SC1 CU TR SLP207
16:00
V
3 °C 20 mi 3,800 ft 120° 120° 5 kt METAR CYVR 070000Z 12005KT 20SM FEW015 BKN038 OVC040 03/02 A3013 RMK ST1SC5SC2 SLP204
15:42
V
2 °C 20 mi 4,700 ft 110° 110° 4 kt METAR CYVR 062342Z 11004KT 20SM FEW015 SCT037 OVC047 02/02 A3013 RMK ST1SC3SC4 SLP204
15:00
V
3 °C 15 mi 4,400 ft 100° 100° 4 kt METAR CYVR 062300Z 10004KT 15SM FEW015 BKN044 OVC053 03/02 A3012 RMK ST1SC4SC3 SLP203
14:00
V
3 °C 15 mi 4,500 ft 100° 100° 5 kt METAR CYVR 062200Z 10005KT 15SM FEW015 BKN045 OVC050 03/02 A3012 RMK ST1SC5SC2 SLP201
13:00
V
3 °C 10 mi 5,000 ft 100° 100° 4 kt METAR CYVR 062100Z 10004KT 10SM FEW015 SCT020 BKN050 03/02 A3012 RMK ST1SC2SC4 SLP202
12:00
V
2 °C 10 mi 5,000 ft 080° 080° 5 kt METAR CYVR 062000Z 08005KT 10SM -RA FEW015 SCT020 OVC050 02/02 A3012 RMK ST1SC2SC5 SLP203
11:00
V
2 °C 10 mi 5,000 ft 090° 090° 5 kt METAR CYVR 061900Z 09005KT 10SM FEW020 OVC050 02/01 A3013 RMK SC2SC6 SLP205
10:00
V
1 °C 10 mi 5,000 ft 090° 090° 6 kt METAR CYVR 061800Z 09006KT 10SM FEW020 OVC050 01/01 A3012 RMK SC2SC6 SLP203
09:43
V
1 °C 6 mi 5,000 ft 100° 100° 6 kt METAR CYVR 061743Z 10006KT 6SM BR SCT020 OVC050 01/00 A3012 RMK SC3SC5 SLP202
09:00
M
1 °C 6 mi 1,900 ft 100° 100° 7 kt METAR CYVR 061700Z 10007KT 6SM -DZ BR FEW015 OVC019 01/01 A3012 RMK ST2SC6 SLP201
08:00
M
1 °C 6 mi 1,900 ft 090° 090° 2 kt METAR CYVR 061600Z 09002KT 6SM -DZ BR FEW015 OVC019 01/00 A3011 RMK ST2SC6 SLP198
07:00
M
1 °C 15 mi 2,100 ft 100° 100° 6 kt METAR CYVR 061500Z 10006KT 15SM -DZ FEW015 OVC021 01/00 A3009 RMK ST2SC6 SLP193
06:00
M
1 °C 15 mi 2,400 ft 080° 080° 4 kt METAR CYVR 061400Z 08004KT 15SM FEW014 OVC024 01/01 A3008 RMK ST1SC7 SLP189
05:00
M
1 °C 15 mi 2,000 ft 090° 090° 5 kt METAR CYVR 061300Z 09005KT 15SM FEW014 BKN020 OVC034 01/00 A3008 RMK ST2SC5SC1 SLP189
04:00
V
1 °C 15 mi 3,100 ft 070° 070° 5 kt METAR CYVR 061200Z 07005KT 15SM FEW014 OVC031 01/M00 A3008 RMK ST2SC6 SLP190
03:00
V
1 °C 15 mi 3,200 ft 100° 100° 5 kt METAR CYVR 061100Z 10005KT 15SM FEW018 OVC032 01/M00 A3009 RMK SC2SC6 SLP191
02:00
V
1 °C 15 mi 3,300 ft 100° 100° 4 kt METAR CYVR 061000Z 10004KT 15SM OVC033 01/00 A3008 RMK SC8 SLP190
01:00
V
1 °C 15 mi 3,400 ft 100° 100° 6 kt METAR CYVR 060900Z 10006KT 15SM FEW018 OVC034 01/00 A3008 RMK SC1SC7 SLP190
00:00
V
1 °C 15 mi 3,800 ft 110° 110° 7 kt METAR CYVR 060800Z 11007KT 15SM FEW018 OVC038 01/M00 A3008 RMK SC2SC6 SLP190

December 5, 2022

Time Code Weather Temp. Visibility Ceiling Wind METAR/SPECI
23:00
M
1 °C 15 mi 1,700 ft Var 000° 0 kt METAR CYVR 060700Z 00000KT 15SM OVC017 01/00 A3008 RMK SC8 SLP189
22:00
V
1 °C 15 mi 3,500 ft 130° 130° 2 kt METAR CYVR 060600Z 13002KT 15SM FEW020 OVC035 01/01 A3008 RMK SC1SC7 SLP187
21:00
V
1 °C 15 mi 3,600 ft 110° 110° 5 kt METAR CYVR 060500Z 11005KT 15SM FEW020 OVC036 01/00 A3007 RMK SC2SC6 SLP185
20:00
M
1 °C 20 mi 2,000 ft 100° 100° 4 kt METAR CYVR 060400Z 10004KT 20SM BKN020 OVC033 01/01 A3006 RMK SC5SC3 SLP180
19:00
V
1 °C 20 mi 3,400 ft 140° 140° 4 kt METAR CYVR 060300Z 14004KT 20SM FEW016 OVC034 01/01 A3005 RMK SC2SC6 SLP178
18:00
V
1 °C 20 mi 3,000 ft Var 000° 0 kt METAR CYVR 060200Z 00000KT 20SM FEW020 OVC030 01/00 A3004 RMK CU1SC8 CU TR SLP175
17:00
V
1 °C 20 mi 3,000 ft Var 000° 0 kt METAR CYVR 060100Z 00000KT 20SM FEW015 BKN030 01/M00 A3005 RMK SC1SC7 SC TR SLP177
16:00
V
1 °C 30 mi 3,000 ft 110° 110° 2 kt METAR CYVR 060000Z 11002KT 30SM BKN030 01/M00 A3004 RMK SC7 SLP176
15:00
V
1 °C 30 mi 3,000 ft 190° 190° 3 kt METAR CYVR 052300Z 19003KT 130V240 30SM FEW025 BKN030 01/M01 A3003 RMK CU1SC7 CU TR SLP173
14:00
V
1 °C 30 mi 3,000 ft 190° 190° 2 kt METAR CYVR 052200Z 19002KT 30SM FEW025 BKN030 01/M01 A3003 RMK CU1SC7 CU TR SLP173
13:00
V
1 °C 30 mi 3,000 ft Var 000° 0 kt METAR CYVR 052100Z 00000KT 30SM FEW025 BKN030 01/M02 A3004 RMK CU1SC7 CU TR SLP176
12:00
M
0 °C 30 mi 2,500 ft 110° 110° 3 kt METAR CYVR 052000Z 11003KT 30SM BKN025 M00/M02 A3005 RMK SC7 CU EMBEDED SLP179
11:00
M
-1 °C 30 mi 2,700 ft 110° 110° 4 kt METAR CYVR 051900Z 11004KT 30SM FEW015 BKN027 M01/M02 A3006 RMK CU1SC7 CU TR SLP183
10:00
M
-2 °C 30 mi 2,500 ft 090° 090° 5 kt METAR CYVR 051800Z 09005KT 30SM BKN025 BKN035 M02/M02 A3006 RMK SC7SC1 SC TR SLP182
09:00
V
-4 °C 30 mi - 100° 100° 4 kt METAR CYVR 051700Z 10004KT 30SM FEW030 FEW080 FEW100 M04/M04 A3006 RMK CU1AC1AC1 CU TR AC TR SLP182
08:00
V
-5 °C 25 mi - 100° 100° 6 kt METAR CYVR 051600Z 10006KT 25SM FEW015 FEW030 M05/M05 A3006 RMK SC1SC1 SC TR SC TR HZ AL QUAD SLP180
07:00
V
-4 °C 20 mi - 110° 110° 5 kt METAR CYVR 051500Z 11005KT 20SM FEW030 FEW100 M04/M04 A3006 RMK SC1AC1 SC TR AC TR FROIN SLP180
06:00
V
-5 °C 20 mi - 090° 090° 4 kt METAR CYVR 051400Z 09004KT 20SM SKC M05/M05 A3005 RMK FROIN SLP178
05:00
V
-5 °C 20 mi - 090° 090° 3 kt METAR CYVR 051300Z 09003KT 20SM SKC M05/M05 A3005 RMK FROIN SLP179
04:00
V
-4 °C 20 mi - 100° 100° 3 kt METAR CYVR 051200Z 10003KT 20SM SKC M04/M04 A3006 RMK SLP180
03:00
V
-4 °C 20 mi - 100° 100° 7 kt METAR CYVR 051100Z 10007KT 20SM SKC M04/M05 A3005 RMK FROIN SLP179
02:00
V
-4 °C 20 mi - 100° 100° 4 kt METAR CYVR 051000Z 10004KT 20SM SKC M04/M04 A3004 RMK SLP176

We and third parties follow your internet behavior on our website with cookies. If you continue, we assume you agree with our cookie policy.